Alytus, Lithuania
Current Conditions -  °F | °C
As of 8:50 PM on Monday 22 Dec 2014 (Local Time) from EYKA Reporting Station
Overcast Overcast  
Wind Chill: 38°   Ceiling: 900
Heat Index: 45°   Visibility: 6mi
Dew Point: 41°   Wind: 15mph
Humidity: 87%   Direction: 260°W
Pressure: 29.26"   Gusts: NA
Location:  54.39°N, 24.05°E
Report Text: EYKA 221750Z 26013KT 9999 OVC009 07/05 Q0991 R08/290095
Loading
Personal Weather Stations






























Interactive Weather Map New forecast layout! Learn more

10-Day Weather Forecast

Advertisements
Track Severe Weather on mobile